createdAt,value
2023-05-02T00:00:56.292Z,6.35
2023-05-02T00:01:57.953Z,7.88
2023-05-02T00:03:00.792Z,6.00
2023-05-02T00:04:02.710Z,5.80
2023-05-02T00:05:06.141Z,5.65
2023-05-02T00:06:07.659Z,5.15
2023-05-02T00:07:09.128Z,5.28
2023-05-02T00:08:12.262Z,5.35
2023-05-02T00:09:14.365Z,6.00
2023-05-02T00:10:16.236Z,6.40
2023-05-02T00:11:17.968Z,6.97
2023-05-02T00:12:19.473Z,6.22
2023-05-02T00:13:21.015Z,5.68
2023-05-02T00:14:24.404Z,6.38
2023-05-02T00:15:27.494Z,6.18
2023-05-02T00:16:29.181Z,7.00
2023-05-02T00:17:31.079Z,5.68
2023-05-02T00:18:32.973Z,6.90
2023-05-02T00:19:39.057Z,5.90
2023-05-02T00:20:41.750Z,5.90
2023-05-02T00:21:43.251Z,5.75
2023-05-02T00:22:44.966Z,5.55
2023-05-02T00:23:46.761Z,5.75
2023-05-02T00:24:48.317Z,5.60
2023-05-02T00:25:50.158Z,5.05
2023-05-02T00:26:51.602Z,6.25
2023-05-02T00:27:53.263Z,5.90
2023-05-02T00:28:54.983Z,6.10
2023-05-02T00:29:56.491Z,6.38
2023-05-02T00:30:59.298Z,5.85
2023-05-02T00:32:01.534Z,5.80
2023-05-02T00:33:03.454Z,6.82
2023-05-02T00:34:05.268Z,5.63
2023-05-02T00:35:07.360Z,6.15
2023-05-02T00:36:16.362Z,6.07
2023-05-02T00:37:18.853Z,7.70
2023-05-02T00:38:20.424Z,8.85
2023-05-02T00:39:21.928Z,7.38
2023-05-02T00:40:23.679Z,7.32
2023-05-02T00:41:25.304Z,8.85
2023-05-02T00:42:26.944Z,8.60
2023-05-02T00:43:30.609Z,8.68
2023-05-02T00:44:32.626Z,7.53
2023-05-02T00:45:34.368Z,7.53
2023-05-02T00:46:36.072Z,9.52
2023-05-02T00:47:38.087Z,7.10
2023-05-02T00:48:39.762Z,7.60
2023-05-02T00:49:42.160Z,9.05
2023-05-02T00:50:43.665Z,7.20
2023-05-02T00:51:45.664Z,7.93
2023-05-02T00:52:47.296Z,8.77
2023-05-02T00:53:49.251Z,7.47
2023-05-02T00:54:51.339Z,7.05
2023-05-02T00:55:54.279Z,7.22
2023-05-02T00:56:55.773Z,7.13
2023-05-02T00:57:57.751Z,6.93
2023-05-02T00:59:01.437Z,6.68
2023-05-02T01:00:05.071Z,6.37
2023-05-02T01:01:28.283Z,7.90
2023-05-02T01:02:51.521Z,7.10
2023-05-02T01:04:02.498Z,6.80
2023-05-02T01:05:14.888Z,7.93
2023-05-02T01:06:24.709Z,6.50
2023-05-02T01:07:46.905Z,8.02
2023-05-02T01:09:06.909Z,6.85
2023-05-02T01:10:41.674Z,6.95
2023-05-02T01:12:05.281Z,6.90
2023-05-02T01:13:14.032Z,7.90
2023-05-02T01:14:15.924Z,7.88
2023-05-02T01:15:21.210Z,8.57
2023-05-02T01:16:25.207Z,7.25
2023-05-02T01:17:30.491Z,9.88
2023-05-02T01:18:36.777Z,7.95
2023-05-02T01:19:42.254Z,7.00
2023-05-02T01:20:46.449Z,8.68
2023-05-02T01:21:49.897Z,9.70
2023-05-02T01:22:52.347Z,6.95
2023-05-02T01:24:13.444Z,6.90
2023-05-02T01:25:20.411Z,7.07
2023-05-02T01:26:21.815Z,8.25
2023-05-02T01:27:45.093Z,8.30
2023-05-02T01:28:58.888Z,7.55
2023-05-02T01:30:03.435Z,7.70
2023-05-02T01:31:06.866Z,9.98
2023-05-02T01:32:10.812Z,7.10
2023-05-02T01:33:17.203Z,8.75
2023-05-02T01:34:21.368Z,7.20
2023-05-02T01:35:24.235Z,9.77
2023-05-02T01:36:30.188Z,8.40
2023-05-02T01:37:33.944Z,8.52
2023-05-02T01:38:37.481Z,9.63
2023-05-02T01:39:41.033Z,7.32
2023-05-02T01:40:45.551Z,7.67
2023-05-02T01:41:51.736Z,8.05
2023-05-02T01:42:54.322Z,7.88
2023-05-02T01:44:00.398Z,7.45
2023-05-02T01:45:04.296Z,9.35
2023-05-02T01:46:10.425Z,8.18
2023-05-02T01:47:13.749Z,8.15
2023-05-02T01:48:19.187Z,8.05
2023-05-02T01:49:24.229Z,7.18
2023-05-02T01:50:27.125Z,8.33
2023-05-02T01:51:33.122Z,8.27
2023-05-02T01:52:35.517Z,7.43
2023-05-02T01:53:39.353Z,8.25
2023-05-02T01:54:42.236Z,7.28
2023-05-02T01:55:45.764Z,9.50
2023-05-02T01:56:49.231Z,8.55
2023-05-02T01:57:53.164Z,8.07
2023-05-02T01:58:56.195Z,8.80
2023-05-02T01:59:59.290Z,7.63
2023-05-02T02:01:01.770Z,7.85
2023-05-02T02:02:06.236Z,7.95
2023-05-02T02:03:09.691Z,8.80
2023-05-02T02:04:14.029Z,9.80
2023-05-02T02:05:18.515Z,10.23
2023-05-02T02:06:21.332Z,7.13
2023-05-02T02:07:23.392Z,6.68
2023-05-02T02:08:26.314Z,8.45
2023-05-02T02:09:27.975Z,7.57
2023-05-02T02:10:35.956Z,9.27
2023-05-02T02:11:59.820Z,7.53
2023-05-02T02:13:12.612Z,7.43
2023-05-02T02:14:22.699Z,9.32
2023-05-02T02:15:34.766Z,8.73
2023-05-02T02:16:41.596Z,7.95
2023-05-02T02:17:48.222Z,8.93
2023-05-02T02:18:51.681Z,7.47
2023-05-02T02:19:55.833Z,7.53
2023-05-02T02:20:59.182Z,8.60
2023-05-02T02:22:03.197Z,7.95
2023-05-02T02:23:07.316Z,8.98
2023-05-02T02:24:09.647Z,8.45
2023-05-02T02:25:13.497Z,8.45
2023-05-02T02:26:19.565Z,9.23
2023-05-02T02:27:21.603Z,7.72
2023-05-02T02:28:23.492Z,10.38
2023-05-02T02:29:25.431Z,8.27
2023-05-02T02:30:27.066Z,9.52
2023-05-02T02:31:36.046Z,8.65
2023-05-02T02:32:38.083Z,11.18
2023-05-02T02:33:40.281Z,10.13
2023-05-02T02:34:42.021Z,9.55
2023-05-02T02:35:50.513Z,11.05
2023-05-02T02:37:08.250Z,8.68
2023-05-02T02:38:38.981Z,8.93
2023-05-02T02:40:12.530Z,9.52
2023-05-02T02:41:24.342Z,8.57
2023-05-02T02:42:36.156Z,8.23
2023-05-02T02:43:48.266Z,8.38
2023-05-02T02:45:01.071Z,8.60
2023-05-02T02:46:09.379Z,8.48
2023-05-02T02:47:21.775Z,8.50
2023-05-02T02:48:34.933Z,9.48
2023-05-02T02:50:02.548Z,9.40
2023-05-02T02:51:14.795Z,10.25
2023-05-02T02:52:31.610Z,10.75
2023-05-02T02:53:57.891Z,8.02
2023-05-02T02:55:16.464Z,8.65
2023-05-02T02:56:26.610Z,8.60
2023-05-02T02:57:44.951Z,7.97
2023-05-02T02:58:54.611Z,9.38
2023-05-02T03:00:22.049Z,9.18
2023-05-02T03:01:26.959Z,9.15
2023-05-02T03:02:32.085Z,8.40
2023-05-02T03:03:34.824Z,9.52
2023-05-02T03:04:39.322Z,8.05
2023-05-02T03:05:43.231Z,8.90
2023-05-02T03:06:45.061Z,7.70
2023-05-02T03:07:47.078Z,8.13
2023-05-02T03:08:48.555Z,8.80
2023-05-02T03:09:53.931Z,7.03
2023-05-02T03:10:57.785Z,6.90
2023-05-02T03:11:59.327Z,6.45
2023-05-02T03:13:01.584Z,6.68
2023-05-02T03:14:03.182Z,7.00
2023-05-02T03:15:24.155Z,6.80
2023-05-02T03:16:34.169Z,6.93
2023-05-02T03:17:36.783Z,8.20
2023-05-02T03:18:38.655Z,8.23
2023-05-02T03:19:40.166Z,7.03
2023-05-02T03:20:41.937Z,8.85
2023-05-02T03:21:43.627Z,8.93
2023-05-02T03:22:50.899Z,7.05
2023-05-02T03:23:52.805Z,7.60
2023-05-02T03:24:54.990Z,8.93
2023-05-02T03:25:56.553Z,9.52
2023-05-02T03:27:00.149Z,8.18
2023-05-02T03:28:07.676Z,7.95
2023-05-02T03:29:09.977Z,8.27
2023-05-02T03:30:15.112Z,7.97
2023-05-02T03:31:17.082Z,8.60
2023-05-02T03:32:18.568Z,8.50
2023-05-02T03:33:20.517Z,7.32
2023-05-02T03:34:22.345Z,7.80
2023-05-02T03:35:25.800Z,8.80
2023-05-02T03:36:28.275Z,9.90
2023-05-02T03:37:30.534Z,8.23
2023-05-02T03:38:34.288Z,9.15
2023-05-02T03:39:40.410Z,7.90
2023-05-02T03:40:41.932Z,7.03
2023-05-02T03:41:46.513Z,7.75
2023-05-02T03:42:51.914Z,8.25
2023-05-02T03:43:59.766Z,7.22
2023-05-02T03:45:02.961Z,6.57
2023-05-02T03:46:07.831Z,8.38
2023-05-02T03:47:13.644Z,7.65
2023-05-02T03:48:17.323Z,7.15
2023-05-02T03:49:19.690Z,7.50
2023-05-02T03:50:23.480Z,8.57
2023-05-02T03:51:26.874Z,7.70
2023-05-02T03:52:30.837Z,8.43
2023-05-02T03:53:33.310Z,7.28
2023-05-02T03:54:34.928Z,7.63
2023-05-02T03:55:43.735Z,7.57
2023-05-02T03:56:54.144Z,7.40
2023-05-02T03:58:02.635Z,8.40
2023-05-02T03:59:04.361Z,7.65
2023-05-02T04:00:06.965Z,9.75
2023-05-02T04:01:16.093Z,11.25
2023-05-02T04:02:20.599Z,9.45
2023-05-02T04:03:24.481Z,7.60
2023-05-02T04:04:26.410Z,7.90
2023-05-02T04:05:29.627Z,7.35
2023-05-02T04:06:32.110Z,10.30
2023-05-02T04:07:37.507Z,9.98
2023-05-02T04:08:41.210Z,11.80
2023-05-02T04:09:42.716Z,10.98
2023-05-02T04:10:46.877Z,9.45
2023-05-02T04:11:49.215Z,11.80
2023-05-02T04:12:50.805Z,9.52
2023-05-02T04:13:53.522Z,10.90
2023-05-02T04:14:55.693Z,9.32
2023-05-02T04:16:01.095Z,9.55
2023-05-02T04:17:07.076Z,9.18
2023-05-02T04:18:13.587Z,9.50
2023-05-02T04:19:16.394Z,9.05
2023-05-02T04:20:18.466Z,10.30
2023-05-02T04:21:23.698Z,9.52
2023-05-02T04:22:25.273Z,9.80
2023-05-02T04:23:31.381Z,9.35
2023-05-02T04:24:35.578Z,9.48
2023-05-02T04:25:37.223Z,8.93
2023-05-02T04:26:39.096Z,8.50
2023-05-02T04:27:44.601Z,9.15
2023-05-02T04:28:49.710Z,10.40
2023-05-02T04:29:53.445Z,8.77
2023-05-02T04:30:56.488Z,10.52
2023-05-02T04:31:59.483Z,10.77
2023-05-02T04:33:02.945Z,8.90
2023-05-02T04:34:08.364Z,10.10
2023-05-02T04:35:16.241Z,9.05
2023-05-02T04:36:19.038Z,9.60
2023-05-02T04:37:21.846Z,8.13
2023-05-02T04:38:24.345Z,8.25
2023-05-02T04:39:26.150Z,7.68
2023-05-02T04:40:46.179Z,6.20
2023-05-02T04:41:48.239Z,5.93
2023-05-02T04:42:50.480Z,5.70
2023-05-02T04:43:55.582Z,7.00
2023-05-02T04:44:57.417Z,6.72
2023-05-02T04:45:59.060Z,8.23
2023-05-02T04:47:04.890Z,7.78
2023-05-02T04:48:06.635Z,7.68
2023-05-02T04:49:08.728Z,7.43
2023-05-02T04:50:10.502Z,7.88
2023-05-02T04:51:12.541Z,8.38
2023-05-02T04:52:15.044Z,8.35
2023-05-02T04:53:16.695Z,9.02
2023-05-02T04:54:18.263Z,7.97
2023-05-02T04:55:20.109Z,9.98
2023-05-02T04:56:21.918Z,9.38
2023-05-02T04:57:23.999Z,8.75
2023-05-02T04:58:30.327Z,7.85
2023-05-02T04:59:36.076Z,7.78
2023-05-02T05:00:38.133Z,8.18
2023-05-02T05:01:39.785Z,8.55
2023-05-02T05:02:43.543Z,8.37
2023-05-02T05:03:48.154Z,7.88
2023-05-02T05:04:51.648Z,7.72
2023-05-02T05:05:54.328Z,10.23
2023-05-02T05:06:58.141Z,9.13
2023-05-02T05:08:01.980Z,8.02
2023-05-02T05:09:07.430Z,7.50
2023-05-02T05:10:11.804Z,7.57
2023-05-02T05:11:20.430Z,7.53
2023-05-02T05:12:22.045Z,7.57
2023-05-02T05:13:23.801Z,6.85
2023-05-02T05:14:25.709Z,6.18
2023-05-02T05:15:29.427Z,6.80
2023-05-02T05:16:33.932Z,8.68
2023-05-02T05:17:36.319Z,8.30
2023-05-02T05:18:41.430Z,6.75
2023-05-02T05:19:45.821Z,9.75
2023-05-02T05:20:47.277Z,10.75
2023-05-02T05:21:48.895Z,8.85
2023-05-02T05:22:52.908Z,7.53
2023-05-02T05:23:55.917Z,7.57
2023-05-02T05:25:01.054Z,6.88
2023-05-02T05:26:13.126Z,7.20
2023-05-02T05:27:17.116Z,7.32
2023-05-02T05:28:18.815Z,8.05
2023-05-02T05:29:21.100Z,7.25
2023-05-02T05:30:22.842Z,7.40
2023-05-02T05:31:24.464Z,8.25
2023-05-02T05:32:30.116Z,7.00
2023-05-02T05:33:31.675Z,8.05
2023-05-02T05:34:33.287Z,9.15
2023-05-02T05:35:35.669Z,7.55
2023-05-02T05:36:39.869Z,7.55
2023-05-02T05:37:41.751Z,7.15
2023-05-02T05:38:46.332Z,7.15
2023-05-02T05:39:48.902Z,6.67
2023-05-02T05:40:51.202Z,6.97
2023-05-02T05:41:54.849Z,6.30
2023-05-02T05:42:57.907Z,6.60
2023-05-02T05:44:04.072Z,7.70
2023-05-02T05:45:07.221Z,7.32
2023-05-02T05:46:09.216Z,6.32
2023-05-02T05:47:12.360Z,7.45
2023-05-02T05:48:14.041Z,7.50
2023-05-02T05:49:19.394Z,6.45
2023-05-02T05:50:21.802Z,6.25
2023-05-02T05:51:23.445Z,7.28
2023-05-02T05:52:25.213Z,7.53
2023-05-02T05:53:28.815Z,7.82
2023-05-02T05:54:31.236Z,8.68
2023-05-02T05:55:37.215Z,8.77
2023-05-02T05:56:39.422Z,8.25
2023-05-02T05:57:45.844Z,7.43
2023-05-02T05:58:47.449Z,7.60
2023-05-02T05:59:49.814Z,8.75
2023-05-02T06:00:52.046Z,7.85
2023-05-02T06:01:54.123Z,7.97
2023-05-02T06:02:57.469Z,7.70
2023-05-02T06:04:06.595Z,7.70
2023-05-02T06:05:11.272Z,7.20
2023-05-02T06:06:13.157Z,8.70
2023-05-02T06:07:14.797Z,6.85
2023-05-02T06:08:16.421Z,9.00
2023-05-02T06:09:17.935Z,7.10
2023-05-02T06:10:19.500Z,7.40
2023-05-02T06:11:21.612Z,7.85
2023-05-02T06:12:23.233Z,7.88
2023-05-02T06:13:24.766Z,7.53
2023-05-02T06:14:26.706Z,8.10
2023-05-02T06:15:28.420Z,8.60
2023-05-02T06:16:29.964Z,7.82
2023-05-02T06:17:31.779Z,10.35
2023-05-02T06:18:33.521Z,8.35
2023-05-02T06:19:35.009Z,7.22
2023-05-02T06:20:37.098Z,7.90
2023-05-02T06:21:39.437Z,7.18
2023-05-02T06:22:41.604Z,8.98
2023-05-02T06:23:43.176Z,9.38
2023-05-02T06:24:44.707Z,8.45
2023-05-02T06:25:46.509Z,8.30
2023-05-02T06:26:48.021Z,7.75
2023-05-02T06:27:49.590Z,8.27
2023-05-02T06:28:51.057Z,8.65
2023-05-02T06:29:53.248Z,7.85
2023-05-02T06:31:02.180Z,8.75
2023-05-02T06:32:04.280Z,9.02
2023-05-02T06:33:05.911Z,9.73
2023-05-02T06:34:07.809Z,9.13
2023-05-02T06:35:10.712Z,8.65
2023-05-02T06:36:12.247Z,8.80
2023-05-02T06:37:13.983Z,9.00
2023-05-02T06:38:18.134Z,8.00
2023-05-02T06:39:19.605Z,9.15
2023-05-02T06:40:21.152Z,8.63
2023-05-02T06:41:23.468Z,9.45
2023-05-02T06:42:25.053Z,9.77
2023-05-02T06:43:26.561Z,9.13
2023-05-02T06:44:28.132Z,10.23
2023-05-02T06:45:29.646Z,10.52
2023-05-02T06:46:31.787Z,10.13
2023-05-02T06:47:33.454Z,9.10
2023-05-02T06:48:38.008Z,10.93
2023-05-02T06:49:39.491Z,11.15
2023-05-02T06:50:41.227Z,11.27
2023-05-02T06:51:43.927Z,11.50
2023-05-02T06:52:45.465Z,12.00
2023-05-02T06:53:46.955Z,12.40
2023-05-02T06:54:48.544Z,10.20
2023-05-02T06:55:50.270Z,11.38
2023-05-02T06:56:51.960Z,10.60
2023-05-02T06:57:54.644Z,10.83
2023-05-02T06:58:56.149Z,10.23
2023-05-02T06:59:57.738Z,13.23
2023-05-02T07:00:59.408Z,12.93
2023-05-02T07:02:01.935Z,13.05
2023-05-02T07:03:05.265Z,12.52
2023-05-02T07:04:06.799Z,12.27
2023-05-02T07:05:08.886Z,13.25
2023-05-02T07:06:10.572Z,12.20
2023-05-02T07:07:12.144Z,13.43
2023-05-02T07:08:13.856Z,11.48
2023-05-02T07:09:15.373Z,12.88
2023-05-02T07:10:16.938Z,12.55
2023-05-02T07:11:18.432Z,16.00
2023-05-02T07:12:20.905Z,13.18
2023-05-02T07:13:22.375Z,13.00
2023-05-02T07:14:23.909Z,13.38
2023-05-02T07:15:25.533Z,16.90
2023-05-02T07:16:27.828Z,13.48
2023-05-02T07:17:29.398Z,13.02
2023-05-02T07:18:31.226Z,14.05
2023-05-02T07:19:33.500Z,14.70
2023-05-02T07:20:35.024Z,14.57
2023-05-02T07:21:36.522Z,14.90
2023-05-02T07:22:38.099Z,15.68
2023-05-02T07:23:39.550Z,16.00
2023-05-02T07:24:42.207Z,14.48
2023-05-02T07:25:43.776Z,12.88
2023-05-02T07:26:45.341Z,14.20
2023-05-02T07:27:46.877Z,16.15
2023-05-02T07:28:48.483Z,15.50
2023-05-02T07:29:50.046Z,15.82
2023-05-02T07:30:51.588Z,16.30
2023-05-02T07:31:53.151Z,15.57
2023-05-02T07:32:54.791Z,16.92
2023-05-02T07:33:56.301Z,17.27
2023-05-02T07:34:57.806Z,17.05
2023-05-02T07:35:59.324Z,19.63
2023-05-02T07:37:00.880Z,19.17
2023-05-02T07:38:02.384Z,19.45
2023-05-02T07:39:03.824Z,18.00
2023-05-02T07:40:07.392Z,16.90
2023-05-02T07:41:08.852Z,17.65
2023-05-02T07:42:10.402Z,17.58
2023-05-02T07:43:11.877Z,16.88
2023-05-02T07:44:13.356Z,17.88
2023-05-02T07:45:14.853Z,19.63
2023-05-02T07:46:16.497Z,18.90
2023-05-02T07:47:17.970Z,15.98
2023-05-02T07:48:20.282Z,16.47
2023-05-02T07:49:21.806Z,18.98
2023-05-02T07:50:23.860Z,15.57
2023-05-02T07:51:26.836Z,16.83
2023-05-02T07:52:28.433Z,16.17
2023-05-02T07:53:29.973Z,16.55
2023-05-02T07:54:31.828Z,17.38
2023-05-02T07:55:33.440Z,17.45
2023-05-02T07:56:35.704Z,15.60
2023-05-02T07:57:37.243Z,16.63
2023-05-02T07:58:38.692Z,17.20
2023-05-02T07:59:40.186Z,15.32
2023-05-02T08:00:41.753Z,16.55
2023-05-02T08:01:44.299Z,17.38
2023-05-02T08:02:46.304Z,16.83
2023-05-02T08:03:50.138Z,16.58
2023-05-02T08:04:51.976Z,16.92
2023-05-02T08:05:54.352Z,17.88
2023-05-02T08:06:56.393Z,17.80
2023-05-02T08:07:57.968Z,21.45
2023-05-02T08:08:59.605Z,19.55
2023-05-02T08:10:01.789Z,19.60
2023-05-02T08:11:03.713Z,20.02
2023-05-02T08:12:05.284Z,20.52
2023-05-02T08:13:06.797Z,18.45
2023-05-02T08:14:08.269Z,19.53
2023-05-02T08:15:12.868Z,17.52
2023-05-02T08:16:14.366Z,19.17
2023-05-02T08:17:15.887Z,20.35
2023-05-02T08:18:17.367Z,17.48
2023-05-02T08:19:18.855Z,18.40
2023-05-02T08:20:20.509Z,18.67
2023-05-02T08:21:23.195Z,21.98
2023-05-02T08:22:25.240Z,19.73
2023-05-02T08:23:26.868Z,19.88
2023-05-02T08:24:28.396Z,18.30
2023-05-02T08:25:30.465Z,19.58
2023-05-02T08:26:32.731Z,19.73
2023-05-02T08:27:35.407Z,16.63
2023-05-02T08:28:37.000Z,20.65
2023-05-02T08:29:38.486Z,20.05
2023-05-02T08:30:40.085Z,19.77
2023-05-02T08:31:41.926Z,22.33
2023-05-02T08:32:43.737Z,25.45
2023-05-02T08:33:45.309Z,24.17
2023-05-02T08:34:46.822Z,23.05
2023-05-02T08:35:48.954Z,21.20
2023-05-02T08:36:50.477Z,22.73
2023-05-02T08:37:51.975Z,22.58
2023-05-02T08:38:53.464Z,31.95
2023-05-02T08:39:54.965Z,27.85
2023-05-02T08:40:56.511Z,25.92
2023-05-02T08:41:57.973Z,28.10
2023-05-02T08:42:59.506Z,27.27
2023-05-02T08:44:03.093Z,26.05
2023-05-02T08:45:06.095Z,24.13
2023-05-02T08:46:09.229Z,30.48
2023-05-02T08:47:13.713Z,26.17
2023-05-02T08:48:17.297Z,25.92
2023-05-02T08:49:19.627Z,22.23
2023-05-02T08:50:22.103Z,24.25
2023-05-02T08:51:24.645Z,23.50
2023-05-02T08:52:27.374Z,25.02
2023-05-02T08:53:32.226Z,24.77
2023-05-02T08:54:34.269Z,22.15
2023-05-02T08:55:42.244Z,23.08
2023-05-02T08:56:45.103Z,25.38
2023-05-02T08:57:46.689Z,22.02
2023-05-02T08:58:48.262Z,21.90
2023-05-02T08:59:49.923Z,22.08
2023-05-02T09:00:53.579Z,24.10
2023-05-02T09:02:00.882Z,22.55
2023-05-02T09:03:10.269Z,23.02
2023-05-02T09:04:12.210Z,23.85
2023-05-02T09:05:19.297Z,23.13
2023-05-02T09:06:22.657Z,23.85
2023-05-02T09:07:24.221Z,22.40
2023-05-02T09:08:26.217Z,21.83
2023-05-02T09:09:29.102Z,24.55
2023-05-02T09:10:31.021Z,24.20
2023-05-02T09:11:32.773Z,23.70
2023-05-02T09:12:34.267Z,22.90
2023-05-02T09:13:48.817Z,20.55
2023-05-02T09:15:09.542Z,22.90
2023-05-02T09:16:15.832Z,23.23
2023-05-02T09:17:17.341Z,23.83
2023-05-02T09:18:23.372Z,20.67
2023-05-02T09:19:28.790Z,21.77
2023-05-02T09:20:40.686Z,23.73
2023-05-02T09:21:42.270Z,22.67
2023-05-02T09:22:52.158Z,18.92
2023-05-02T09:23:55.711Z,21.88
2023-05-02T09:24:57.616Z,23.65
2023-05-02T09:26:00.816Z,21.95
2023-05-02T09:27:04.686Z,22.95
2023-05-02T09:28:06.298Z,23.80
2023-05-02T09:29:07.769Z,22.50
2023-05-02T09:30:20.129Z,21.58
2023-05-02T09:31:43.760Z,20.02
2023-05-02T09:32:51.192Z,18.90
2023-05-02T09:33:53.409Z,19.52
2023-05-02T09:35:06.490Z,16.95
2023-05-02T09:36:11.048Z,18.17
2023-05-02T09:37:35.736Z,18.90
2023-05-02T09:38:38.804Z,17.80
2023-05-02T09:39:40.440Z,18.25
2023-05-02T09:40:54.679Z,17.80
2023-05-02T09:41:57.527Z,19.02
2023-05-02T09:42:59.237Z,17.73
2023-05-02T09:44:00.802Z,17.95
2023-05-02T09:45:02.447Z,18.25
2023-05-02T09:46:08.986Z,19.58
2023-05-02T09:47:10.718Z,18.95
2023-05-02T09:48:15.103Z,18.05
2023-05-02T09:49:20.199Z,16.65
2023-05-02T09:50:38.367Z,14.15
2023-05-02T09:51:41.282Z,19.38
2023-05-02T09:53:01.296Z,15.48
2023-05-02T09:54:03.205Z,15.52
2023-05-02T09:55:21.770Z,17.77
2023-05-02T09:56:23.990Z,15.05
2023-05-02T09:57:41.597Z,15.43
2023-05-02T09:58:43.302Z,16.85
2023-05-02T09:59:58.374Z,16.55
2023-05-02T10:01:00.309Z,15.52
2023-05-02T10:02:07.522Z,13.38
2023-05-02T10:03:10.055Z,17.02
2023-05-02T10:04:16.957Z,13.02
2023-05-02T10:05:20.051Z,15.85
2023-05-02T10:06:22.266Z,13.65
2023-05-02T10:07:25.648Z,14.05
2023-05-02T10:08:29.151Z,20.13
2023-05-02T10:09:34.219Z,17.23
2023-05-02T10:10:45.970Z,19.20
2023-05-02T10:11:53.480Z,19.17
2023-05-02T10:12:55.587Z,15.73
2023-05-02T10:13:57.535Z,20.23
2023-05-02T10:15:03.301Z,18.02
2023-05-02T10:16:07.397Z,16.52
2023-05-02T10:17:13.983Z,16.58
2023-05-02T10:18:25.234Z,15.93
2023-05-02T10:20:05.807Z,18.05
2023-05-02T10:21:17.554Z,14.57
2023-05-02T10:22:22.437Z,12.68
2023-05-02T10:23:27.456Z,15.73
2023-05-02T10:24:32.526Z,18.27
2023-05-02T10:25:34.692Z,17.27
2023-05-02T10:26:36.296Z,16.33
2023-05-02T10:27:38.034Z,14.88
2023-05-02T10:28:41.465Z,13.57
2023-05-02T10:29:44.003Z,14.43
2023-05-02T10:30:46.584Z,12.75
2023-05-02T10:31:49.983Z,13.68
2023-05-02T10:32:56.269Z,14.07
2023-05-02T10:33:59.146Z,16.15
2023-05-02T10:35:05.796Z,17.70
2023-05-02T10:36:10.250Z,17.80
2023-05-02T10:37:12.486Z,14.60
2023-05-02T10:38:18.003Z,16.90
2023-05-02T10:39:24.265Z,14.85
2023-05-02T10:40:26.811Z,16.75
2023-05-02T10:41:32.000Z,14.43
2023-05-02T10:42:39.532Z,15.47
2023-05-02T10:43:45.834Z,16.23
2023-05-02T10:44:47.685Z,16.35
2023-05-02T10:45:49.542Z,15.20
2023-05-02T10:46:51.122Z,16.55
2023-05-02T10:48:15.514Z,14.70
2023-05-02T10:49:17.136Z,15.55
2023-05-02T10:50:18.653Z,13.45
2023-05-02T10:51:32.084Z,16.50
2023-05-02T10:52:38.245Z,14.32
2023-05-02T10:53:43.939Z,14.48
2023-05-02T10:54:46.168Z,12.93
2023-05-02T10:56:07.593Z,12.75
2023-05-02T10:57:09.354Z,13.07
2023-05-02T10:58:20.912Z,14.38
2023-05-02T10:59:30.450Z,13.68
2023-05-02T11:00:36.704Z,13.57
2023-05-02T11:01:39.859Z,13.32
2023-05-02T11:02:41.670Z,13.40
2023-05-02T11:03:59.299Z,15.00
2023-05-02T11:05:05.879Z,14.25
2023-05-02T11:06:07.945Z,12.70
2023-05-02T11:07:09.545Z,14.02
2023-05-02T11:08:21.348Z,13.43
2023-05-02T11:09:24.637Z,12.40
2023-05-02T11:10:27.298Z,12.20
2023-05-02T11:11:45.108Z,13.65
2023-05-02T11:12:51.411Z,12.95
2023-05-02T11:13:53.156Z,14.65
2023-05-02T11:14:54.617Z,13.85
2023-05-02T11:15:56.944Z,13.45
2023-05-02T11:17:01.607Z,13.05
2023-05-02T11:18:07.664Z,11.68
2023-05-02T11:19:09.392Z,14.90
2023-05-02T11:20:14.164Z,12.43
2023-05-02T11:21:28.621Z,14.52
2023-05-02T11:22:33.901Z,14.45
2023-05-02T11:23:36.878Z,11.25
2023-05-02T11:24:42.941Z,13.35
2023-05-02T11:25:46.922Z,13.20
2023-05-02T11:26:48.422Z,11.38
2023-05-02T11:27:49.973Z,11.32
2023-05-02T11:28:51.950Z,11.98
2023-05-02T11:30:12.802Z,11.38
2023-05-02T11:31:26.706Z,9.52
2023-05-02T11:32:47.396Z,12.73
2023-05-02T11:33:56.912Z,10.68
2023-05-02T11:34:59.033Z,11.70
2023-05-02T11:36:01.066Z,12.57
2023-05-02T11:37:11.447Z,12.65
2023-05-02T11:38:15.508Z,11.45
2023-05-02T11:39:21.700Z,11.38
2023-05-02T11:40:24.010Z,13.88
2023-05-02T11:41:44.328Z,14.57
2023-05-02T11:42:45.945Z,14.82
2023-05-02T11:43:47.604Z,11.07
2023-05-02T11:44:59.855Z,13.35
2023-05-02T11:46:02.561Z,11.33
2023-05-02T11:47:04.445Z,13.98
2023-05-02T11:48:07.509Z,13.70
2023-05-02T11:49:10.544Z,11.10
2023-05-02T11:50:13.478Z,11.50
2023-05-02T11:51:23.062Z,10.15
2023-05-02T11:52:24.905Z,10.00
2023-05-02T11:53:29.334Z,8.93
2023-05-02T11:54:31.058Z,11.93
2023-05-02T11:55:32.651Z,10.33
2023-05-02T11:56:34.172Z,11.23
2023-05-02T11:57:36.263Z,14.18
2023-05-02T11:58:37.725Z,15.07
2023-05-02T11:59:51.597Z,13.88
2023-05-02T12:00:53.919Z,12.68
2023-05-02T12:01:55.830Z,11.68
2023-05-02T12:02:57.772Z,12.68
2023-05-02T12:04:07.842Z,9.50
2023-05-02T12:05:12.936Z,11.40
2023-05-02T12:06:16.505Z,10.05
2023-05-02T12:07:18.143Z,10.93
2023-05-02T12:08:27.328Z,9.80
2023-05-02T12:09:28.930Z,13.38
2023-05-02T12:10:37.570Z,12.85
2023-05-02T12:11:39.244Z,18.90
2023-05-02T12:12:43.492Z,11.25
2023-05-02T12:13:50.274Z,11.18
2023-05-02T12:14:52.263Z,11.67
2023-05-02T12:15:54.868Z,12.80
2023-05-02T12:16:58.902Z,12.60
2023-05-02T12:18:01.472Z,13.73
2023-05-02T12:19:04.259Z,10.75
2023-05-02T12:20:09.309Z,11.57
2023-05-02T12:21:11.379Z,10.77
2023-05-02T12:22:14.410Z,13.27
2023-05-02T12:23:16.230Z,12.13
2023-05-02T12:24:18.093Z,10.13
2023-05-02T12:25:19.730Z,11.55
2023-05-02T12:26:29.207Z,10.75
2023-05-02T12:27:30.669Z,12.98
2023-05-02T12:28:32.193Z,12.88
2023-05-02T12:29:41.708Z,16.00
2023-05-02T12:30:43.441Z,14.93
2023-05-02T12:31:51.639Z,11.25
2023-05-02T12:32:59.749Z,12.60
2023-05-02T12:34:01.614Z,11.48
2023-05-02T12:35:04.114Z,10.27
2023-05-02T12:36:07.944Z,12.32
2023-05-02T12:37:09.545Z,13.68
2023-05-02T12:38:18.827Z,14.02
2023-05-02T12:39:34.777Z,11.68
2023-05-02T12:40:36.845Z,13.00
2023-05-02T12:41:43.836Z,12.40
2023-05-02T12:43:04.026Z,11.18
2023-05-02T12:44:07.286Z,11.68
2023-05-02T12:45:18.365Z,10.10
2023-05-02T12:46:20.675Z,14.18
2023-05-02T12:47:23.073Z,12.55
2023-05-02T12:48:26.819Z,15.55
2023-05-02T12:49:28.301Z,15.90
2023-05-02T12:50:37.460Z,14.38
2023-05-02T12:51:40.013Z,18.90
2023-05-02T12:52:47.442Z,13.70
2023-05-02T12:53:49.109Z,17.58
2023-05-02T12:54:50.612Z,15.98
2023-05-02T12:56:03.060Z,18.83
2023-05-02T12:57:05.334Z,16.50
2023-05-02T12:58:11.324Z,17.85
2023-05-02T12:59:30.975Z,13.75
2023-05-02T13:00:35.895Z,13.90
2023-05-02T13:01:37.589Z,15.13
2023-05-02T13:02:39.373Z,13.32
2023-05-02T13:03:42.552Z,15.70
2023-05-02T13:04:44.265Z,14.25
2023-05-02T13:05:45.857Z,16.13
2023-05-02T13:06:47.469Z,19.88
2023-05-02T13:07:49.124Z,21.67
2023-05-02T13:08:50.736Z,19.15
2023-05-02T13:09:52.495Z,21.05
2023-05-02T13:10:54.279Z,18.23
2023-05-02T13:11:56.600Z,17.92
2023-05-02T13:12:58.107Z,20.13
2023-05-02T13:14:01.568Z,21.17
2023-05-02T13:15:07.133Z,20.35
2023-05-02T13:16:09.059Z,20.23
2023-05-02T13:17:10.792Z,18.80
2023-05-02T13:18:12.535Z,17.83
2023-05-02T13:19:14.190Z,19.25
2023-05-02T13:20:15.788Z,19.38
2023-05-02T13:21:17.334Z,22.25
2023-05-02T13:22:18.917Z,23.67
2023-05-02T13:23:20.433Z,19.83
2023-05-02T13:24:21.873Z,19.17
2023-05-02T13:25:23.381Z,20.33
2023-05-02T13:26:24.902Z,21.13
2023-05-02T13:27:26.786Z,19.45
2023-05-02T13:28:30.546Z,18.50
2023-05-02T13:29:32.029Z,18.38
2023-05-02T13:30:33.583Z,19.45
2023-05-02T13:31:35.226Z,19.45
2023-05-02T13:32:36.847Z,17.80
2023-05-02T13:33:38.493Z,17.70
2023-05-02T13:34:39.973Z,15.80
2023-05-02T13:35:41.645Z,14.80
2023-05-02T13:36:46.229Z,14.65
2023-05-02T13:37:48.078Z,15.50
2023-05-02T13:38:49.562Z,16.57
2023-05-02T13:39:51.044Z,14.95
2023-05-02T13:40:54.340Z,14.63
2023-05-02T13:41:55.816Z,15.50
2023-05-02T13:42:57.483Z,17.17
2023-05-02T13:43:58.997Z,17.27
2023-05-02T13:45:02.967Z,17.35
2023-05-02T13:46:04.528Z,19.65
2023-05-02T13:47:06.067Z,19.42
2023-05-02T13:48:07.613Z,18.45
2023-05-02T13:49:09.141Z,19.77
2023-05-02T13:50:11.561Z,19.20
2023-05-02T13:51:13.116Z,17.47
2023-05-02T13:52:14.681Z,16.83
2023-05-02T13:53:16.291Z,16.33
2023-05-02T13:54:17.822Z,17.30
2023-05-02T13:55:19.757Z,15.57
2023-05-02T13:56:21.774Z,16.03
2023-05-02T13:57:23.272Z,15.40
2023-05-02T13:58:25.133Z,16.98
2023-05-02T13:59:26.886Z,14.85
2023-05-02T14:00:29.209Z,16.42
2023-05-02T14:01:30.706Z,12.90
2023-05-02T14:02:32.375Z,14.82